Time;durP1;ratioP1;P1;durP2;ratioP2;P2;SDS_P1;SDS_P2;PMS_P1;PMS_P2;Temp;Humidity;BMP_temperature;BMP_pressure;BME280_temperature;BME280_humidity;BME280_pressure;Samples;Min_cycle;Max_cycle;Signal;HPM_P1;HPM_P2
2022/03/26 00:00:27;;;;;;;37.47;23.23;;;;;;;;;;5140769;28;20457;-93
2022/03/26 00:02:54;;;;;;;41.00;22.73;;;;;;;;;;5126271;28;20452;-94
2022/03/26 00:05:22;;;;;;;36.03;22.27;;;;;;;;;;5125308;28;20456;-94
2022/03/26 00:07:50;;;;;;;32.27;21.77;;;;;;;;;;5126344;28;20448;-94
2022/03/26 00:10:18;;;;;;;39.40;23.90;;;;;;;;;;5126184;28;20448;-94
2022/03/26 00:12:45;;;;;;;38.70;23.03;;;;;;;;;;5123523;28;20475;-93
2022/03/26 00:15:12;;;;;;;36.80;23.80;;;;;;;;;;5125636;28;20471;-94
2022/03/26 00:17:41;;;;;;;36.73;24.57;;;;;;;;;;5127918;28;20455;-94
2022/03/26 00:20:09;;;;;;;41.90;24.30;;;;;;;;;;5128475;28;20440;-96
2022/03/26 00:22:38;;;;;;;39.47;22.60;;;;;;;;;;5129584;28;20455;-95
2022/03/26 00:25:10;;;;;;;39.23;22.87;;;;;;;;;;5128556;28;20518;-95
2022/03/26 00:27:39;;;;;;;36.30;21.83;;;;;;;;;;5128832;28;20467;-95
2022/03/26 00:30:07;;;;;;;35.33;23.33;;;;;;;;;;5128060;28;20450;-94
2022/03/26 00:32:35;;;;;;;37.40;22.13;;;;;;;;;;5126829;28;20471;-94
2022/03/26 00:35:02;;;;;;;38.43;24.47;;;;;;;;;;5130364;27;20451;-94
2022/03/26 00:37:29;;;;;;;39.73;22.87;;;;;;;;;;5128190;28;20452;-93
2022/03/26 00:39:56;;;;;;;36.73;21.87;;;;;;;;;;5125228;28;20440;-94
2022/03/26 00:42:25;;;;;;;37.80;22.33;;;;;;;;;;5131250;27;20464;-93
2022/03/26 00:44:52;;;;;;;37.73;22.63;;;;;;;;;;5126320;28;20451;-94
2022/03/26 00:47:22;;;;;;;36.33;22.57;;;;;;;;;;5129110;28;20530;-94
2022/03/26 00:49:50;;;;;;;34.30;21.20;;;;;;;;;;5133435;27;20452;-95
2022/03/26 00:52:21;;;;;;;32.33;20.27;;;;;;;;;;5128018;28;20493;-94
2022/03/26 00:54:48;;;;;;;38.97;25.67;;;;;;;;;;5127371;28;20904;-94
2022/03/26 00:57:16;;;;;;;43.10;26.30;;;;;;;;;;5128576;27;20482;-94
2022/03/26 00:59:59;;;;;;;44.53;27.67;;;;;;;;;;5127792;27;20459;-95
2022/03/26 01:02:27;;;;;;;45.03;29.47;;;;;;;;;;5124202;28;20456;-95
2022/03/26 01:04:55;;;;;;;41.20;26.50;;;;;;;;;;5126158;28;20448;-92
2022/03/26 01:07:23;;;;;;;38.23;25.53;;;;;;;;;;5127040;28;20452;-94
2022/03/26 01:09:50;;;;;;;40.07;25.10;;;;;;;;;;5126501;28;20447;-94
2022/03/26 01:12:17;;;;;;;35.47;22.67;;;;;;;;;;5126054;28;20448;-94
2022/03/26 01:14:45;;;;;;;36.50;22.47;;;;;;;;;;5124584;28;20487;-95
2022/03/26 01:17:12;;;;;;;40.23;22.50;;;;;;;;;;5122115;28;20804;-92
2022/03/26 01:19:41;;;;;;;36.43;22.97;;;;;;;;;;5127899;27;20447;-94
2022/03/26 01:22:08;;;;;;;36.30;22.30;;;4.90;99.90;;;;;;5119785;28;20520;-93
2022/03/26 01:24:35;;;;;;;38.10;25.03;;;;;;;;;;5123863;28;20467;-94
2022/03/26 01:27:03;;;;;;;40.17;25.13;;;;;;;;;;5123131;28;20424;-94
2022/03/26 01:29:31;;;;;;;39.40;24.73;;;;;;;;;;5129236;27;20480;-92
2022/03/26 01:31:58;;;;;;;44.93;25.10;;;;;;;;;;5133342;28;20464;-91
2022/03/26 01:34:26;;;;;;;35.13;24.27;;;;;;;;;;5131608;28;20491;-93
2022/03/26 01:36:55;;;;;;;39.60;24.77;;;;;;;;;;5130183;27;20456;-93
2022/03/26 01:39:23;;;;;;;42.20;26.10;;;;;;;;;;5124735;28;20447;-92
2022/03/26 01:41:50;;;;;;;38.70;24.17;;;;;;;;;;5125329;28;20456;-95
2022/03/26 01:44:18;;;;;;;40.40;24.93;;;4.70;99.90;;;;;;5124406;28;20458;-94
2022/03/26 01:46:47;;;;;;;38.63;23.97;;;;;;;;;;5119738;28;20456;-94
2022/03/26 01:49:14;;;;;;;36.87;23.57;;;;;;;;;;5125860;28;20436;-93
2022/03/26 01:51:41;;;;;;;50.73;23.50;;;;;;;;;;5125439;28;20452;-93
2022/03/26 01:54:10;;;;;;;38.03;21.53;;;;;;;;;;5130424;28;20480;-94
2022/03/26 01:56:38;;;;;;;31.77;20.87;;;;;;;;;;5130715;28;20440;-92
2022/03/26 01:59:07;;;;;;;38.13;21.43;;;;;;;;;;5128819;28;20448;-94
2022/03/26 02:01:34;;;;;;;33.63;21.43;;;;;;;;;;5131030;28;20460;-94
2022/03/26 02:04:01;;;;;;;38.57;21.80;;;;;;;;;;5129354;28;20504;-92
2022/03/26 02:06:32;;;;;;;42.00;23.13;;;;;;;;;;5128844;28;20831;-92
2022/03/26 02:09:21;;;;;;;35.20;21.77;;;4.40;99.90;;;;;;5126214;28;20460;-95
2022/03/26 02:11:49;;;;;;;34.00;21.60;;;;;;;;;;5120770;28;20947;-95
2022/03/26 02:14:17;;;;;;;33.77;20.87;;;4.20;99.90;;;;;;5129941;28;20491;-95
2022/03/26 02:16:45;;;;;;;31.13;20.20;;;4.30;99.90;;;;;;5123577;28;20443;-94
2022/03/26 02:19:20;;;;;;;38.50;22.63;;;4.20;99.90;;;;;;5123837;28;20552;-94
2022/03/26 02:21:49;;;;;;;32.70;20.17;;;;;;;;;;5123718;28;20467;-96
2022/03/26 02:24:17;;;;;;;34.60;21.60;;;;;;;;;;5127898;28;20480;-94
2022/03/26 02:26:44;;;;;;;39.50;24.00;;;;;;;;;;5129647;28;20447;-94
2022/03/26 02:29:12;;;;;;;42.83;24.60;;;4.10;99.90;;;;;;5125292;28;20519;-94
2022/03/26 02:31:40;;;;;;;53.80;30.47;;;4.10;99.90;;;;;;5128492;28;20555;-96
2022/03/26 02:34:08;;;;;;;46.03;28.43;;;4.10;99.90;;;;;;5124028;28;20490;-94
2022/03/26 02:36:35;;;;;;;46.57;29.70;;;;;;;;;;5128383;28;20455;-93
2022/03/26 02:39:04;;;;;;;52.37;29.40;;;;;;;;;;5130033;28;20534;-93
2022/03/26 02:41:34;;;;;;;50.00;29.53;;;;;;;;;;5125843;28;20458;-94
2022/03/26 02:44:01;;;;;;;47.70;27.50;;;;;;;;;;5125596;28;20779;-94
2022/03/26 02:46:29;;;;;;;51.77;28.30;;;;;;;;;;5125184;28;20462;-94
2022/03/26 02:48:56;;;;;;;48.60;27.70;;;;;;;;;;5123493;28;20455;-92
2022/03/26 02:51:23;;;;;;;44.83;28.97;;;;;;;;;;5123757;28;20432;-94
2022/03/26 02:53:52;;;;;;;56.50;31.77;;;3.90;99.90;;;;;;5131325;28;20573;-94
2022/03/26 02:56:21;;;;;;;56.17;30.80;;;;;;;;;;5132075;28;20440;-95
2022/03/26 02:58:49;;;;;;;57.37;36.57;;;;;;;;;;5132199;28;20447;-94
2022/03/26 03:01:17;;;;;;;63.50;37.40;;;;;;;;;;5133138;28;20990;-95
2022/03/26 03:03:46;;;;;;;57.87;34.20;;;;;;;;;;5134603;28;20450;-94
2022/03/26 03:06:13;;;;;;;49.90;31.10;;;;;;;;;;5139027;27;20439;-95
2022/03/26 03:08:41;;;;;;;45.60;26.87;;;;;;;;;;5272459;22;20493;-95
2022/03/26 03:11:09;;;;;;;44.73;25.17;;;;;;;;;;5095530;28;20426;-96
2022/03/26 03:13:39;;;;;;;39.43;23.67;;;;;;;;;;5114463;22;20511;-95
2022/03/26 03:16:07;;;;;;;35.40;22.10;;;;;;;;;;5116071;28;20436;-94
2022/03/26 03:21:19;;;;;;;35.40;20.57;;;;;;;;;;5117398;28;20522;-95
2022/03/26 03:23:51;;;;;;;33.80;19.70;;;3.50;99.90;;;;;;5115431;28;20441;-95
2022/03/26 03:26:18;;;;;;;31.63;20.10;;;;;;;;;;5119348;28;20447;-92
2022/03/26 03:28:48;;;;;;;27.70;17.23;;;;;;;;;;5112293;28;20437;-94
2022/03/26 03:31:16;;;;;;;33.10;19.90;;;;;;;;;;5108010;28;20472;-93
2022/03/26 03:33:43;;;;;;;32.40;19.77;;;;;;;;;;5109933;28;20986;-94
2022/03/26 03:36:10;;;;;;;33.63;19.60;;;;;;;;;;5112079;28;20447;-92
2022/03/26 03:41:37;;;;;;;31.23;19.00;;;;;;;;;;5137782;22;20485;-94
2022/03/26 03:44:18;;;;;;;34.23;19.63;;;;;;;;;;5088653;28;20449;-96
2022/03/26 03:47:03;;;;;;;32.37;20.77;;;;;;;;;;5091142;28;20436;-95
2022/03/26 03:49:31;;;;;;;31.37;19.30;;;;;;;;;;5090585;28;20465;-96
2022/03/26 03:52:00;;;;;;;30.30;19.80;;;3.20;99.90;;;;;;5094055;28;20418;-94
2022/03/26 03:54:27;;;;;;;35.40;20.13;;;;;;;;;;5076870;28;20898;-95
2022/03/26 03:56:55;;;;;;;31.03;18.33;;;;;;;;;;5076396;28;20457;-95
2022/03/26 03:59:24;;;;;;;36.73;20.60;;;;;;;;;;5063539;28;20446;-92
2022/03/26 04:01:51;;;;;;;36.10;19.83;;;;;;;;;;5063711;28;20451;-93
2022/03/26 04:04:18;;;;;;;29.00;18.60;;;;;;;;;;5061360;28;20454;-93
2022/03/26 04:06:46;;;;;;;26.93;19.33;;;;;;;;;;5062111;28;20482;-91
2022/03/26 04:09:13;;;;;;;36.60;20.33;;;;;;;;;;5061324;28;20447;-92
2022/03/26 04:11:41;;;;;;;31.00;18.10;;;;;;;;;;5061844;28;20458;-93
2022/03/26 04:14:08;;;;;;;33.33;19.00;;;;;;;;;;5060803;28;20479;-93
2022/03/26 04:16:39;;;;;;;30.37;18.10;;;;;;;;;;5065394;28;20454;-94
2022/03/26 04:19:06;;;;;;;32.43;19.30;;;;;;;;;;5067076;28;20465;-95
2022/03/26 04:21:33;;;;;;;36.70;21.13;;;;;;;;;;5063951;28;20446;-93
2022/03/26 04:24:00;;;;;;;31.30;19.37;;;;;;;;;;5065282;28;20806;-92
2022/03/26 04:26:27;;;;;;;32.20;19.63;;;;;;;;;;5065026;28;20494;-92
2022/03/26 04:28:55;;;;;;;37.90;20.67;;;;;;;;;;5060793;28;20465;-93
2022/03/26 04:31:22;;;;;;;33.87;19.03;;;;;;;;;;5062802;28;20462;-93
2022/03/26 04:33:51;;;;;;;31.23;18.10;;;;;;;;;;5060413;28;20473;-94
2022/03/26 04:36:18;;;;;;;35.47;20.17;;;;;;;;;;5063730;28;20956;-93
2022/03/26 04:38:45;;;;;;;33.23;19.10;;;;;;;;;;5067439;28;20461;-93
2022/03/26 04:41:13;;;;;;;33.03;19.43;;;;;;;;;;5067386;28;20465;-94
2022/03/26 04:43:43;;;;;;;30.53;18.20;;;2.70;99.90;;;;;;5066089;28;20462;-93
2022/03/26 04:46:10;;;;;;;27.60;17.67;;;;;;;;;;5022911;28;20531;-94
2022/03/26 04:48:37;;;;;;;33.90;18.17;;;;;;;;;;5025567;28;20515;-93
2022/03/26 04:51:06;;;;;;;29.27;17.60;;;;;;;;;;5025643;28;20455;-94
2022/03/26 04:53:33;;;;;;;32.80;20.07;;;;;;;;;;5024689;28;20455;-95
2022/03/26 04:56:03;;;;;;;32.70;17.63;;;;;;;;;;5023428;28;20564;-95
2022/03/26 04:58:30;;;;;;;30.03;18.70;;;;;;;;;;5024025;28;20459;-94
2022/03/26 05:01:00;;;;;;;28.73;18.17;;;;;;;;;;5027102;28;20528;-94
2022/03/26 05:03:32;;;;;;;32.73;19.00;;;;;;;;;;5033060;28;20470;-93
2022/03/26 05:05:59;;;;;;;29.10;18.30;;;;;;;;;;5067993;28;20461;-93
2022/03/26 05:08:27;;;;;;;33.80;19.90;;;;;;;;;;5066988;28;20450;-93
2022/03/26 05:10:56;;;;;;;30.50;17.87;;;;;;;;;;5068753;28;20557;-92
2022/03/26 05:13:23;;;;;;;38.93;18.77;;;;;;;;;;5066948;28;20478;-96
2022/03/26 05:15:51;;;;;;;32.30;18.13;;;;;;;;;;5077960;28;20489;-92
2022/03/26 05:18:19;;;;;;;36.23;20.53;;;;;;;;;;5085617;28;20458;-94
2022/03/26 05:20:47;;;;;;;28.73;17.67;;;;;;;;;;5085864;28;20841;-95
2022/03/26 05:23:14;;;;;;;32.27;17.80;;;;;;;;;;5084129;28;20449;-94
2022/03/26 05:25:43;;;;;;;35.33;18.43;;;;;;;;;;5083749;28;20456;-93
2022/03/26 05:28:10;;;;;;;32.53;18.73;;;;;;;;;;5084202;28;20442;-93
2022/03/26 05:30:37;;;;;;;35.10;18.27;;;;;;;;;;5081675;28;20479;-92
2022/03/26 05:33:05;;;;;;;28.87;17.20;;;;;;;;;;5081016;28;20446;-94
2022/03/26 05:35:33;;;;;;;27.90;17.13;;;;;;;;;;5082355;28;21054;-93
2022/03/26 05:38:01;;;;;;;32.33;17.87;;;;;;;;;;5081684;28;20787;-94
2022/03/26 05:40:28;;;;;;;29.53;18.30;;;;;;;;;;5081601;28;20438;-92
2022/03/26 05:42:57;;;;;;;33.80;19.40;;;;;;;;;;5082214;28;20484;-93
2022/03/26 05:45:24;;;;;;;29.00;18.90;;;;;;;;;;5083652;28;20450;-94
2022/03/26 05:48:01;;;;;;;28.67;17.70;;;;;;;;;;5082084;28;20445;-93
2022/03/26 05:50:29;;;;;;;28.37;17.87;;;;;;;;;;5080331;28;20449;-92
2022/03/26 05:53:00;;;;;;;32.47;18.57;;;;;;;;;;5082560;28;20460;-94
2022/03/26 05:55:27;;;;;;;31.53;19.70;;;;;;;;;;5080317;28;20488;-94
2022/03/26 05:57:59;;;;;;;31.23;18.97;;;;;;;;;;5077382;28;20473;-93
2022/03/26 06:00:26;;;;;;;31.80;19.00;;;;;;;;;;5079611;28;20460;-95
2022/03/26 06:02:54;;;;;;;39.40;19.33;;;;;;;;;;5077352;28;20457;-96
2022/03/26 06:05:21;;;;;;;34.67;20.80;;;;;;;;;;5081657;28;20449;-94
2022/03/26 06:07:50;;;;;;;28.33;18.17;;;;;;;;;;5078506;28;20457;-94
2022/03/26 06:10:18;;;;;;;30.27;18.80;;;;;;;;;;5080422;28;20545;-95
2022/03/26 06:12:48;;;;;;;31.07;18.30;;;;;;;;;;5081981;28;20453;-93
2022/03/26 06:15:16;;;;;;;28.80;18.73;;;;;;;;;;5019039;28;20571;-93
2022/03/26 06:17:55;;;;;;;28.23;18.50;;;;;;;;;;5066687;22;20489;-94
2022/03/26 06:20:22;;;;;;;27.40;19.50;;;;;;;;;;5098866;28;20451;-94
2022/03/26 06:22:49;;;;;;;30.53;18.60;;;;;;;;;;5103232;28;20445;-95
2022/03/26 06:25:20;;;;;;;32.13;20.27;;;;;;;;;;5106143;28;20433;-95
2022/03/26 06:27:56;;;;;;;30.53;18.30;;;;;;;;;;5110341;28;20449;-95
2022/03/26 06:30:26;;;;;;;28.80;20.27;;;;;;;;;;5106183;28;20467;-95
2022/03/26 06:32:54;;;;;;;26.43;18.37;;;;;;;;;;5111240;28;20441;-96
2022/03/26 06:35:22;;;;;;;28.40;18.90;;;;;;;;;;5104919;28;20464;-94
2022/03/26 06:37:49;;;;;;;30.60;19.70;;;;;;;;;;5099120;28;20441;-94
2022/03/26 06:40:21;;;;;;;28.50;19.70;;;;;;;;;;5099709;28;20445;-92
2022/03/26 06:42:52;;;;;;;32.50;20.77;;;;;;;;;;5097621;28;20476;-93
2022/03/26 06:45:19;;;;;;;29.33;21.07;;;;;;;;;;5098437;28;20646;-95
2022/03/26 06:47:48;;;;;;;34.83;21.10;;;;;;;;;;5100372;28;20468;-92
2022/03/26 06:50:15;;;;;;;30.90;21.23;;;;;;;;;;5101926;28;20433;-95
2022/03/26 06:52:42;;;;;;;32.83;21.87;;;;;;;;;;5099656;28;20509;-94
2022/03/26 06:55:10;;;;;;;32.43;22.20;;;9.00;93.80;;;;;;5083188;28;20476;-96
2022/03/26 06:57:38;;;;;;;29.03;20.57;;;;;;;;;;5105343;28;20452;-95
2022/03/26 07:00:11;;;;;;;32.30;21.73;;;10.00;99.90;;;;;;5106052;28;20818;-94
2022/03/26 07:02:38;;;;;;;31.20;21.47;;;;;;;;;;5097618;28;20455;-91
2022/03/26 07:05:09;;;;;;;34.77;22.50;;;;;;;;;;5103893;28;20449;-91
2022/03/26 07:07:36;;;;;;;34.33;21.43;;;10.40;89.90;;;;;;5109737;28;20449;-93
2022/03/26 07:10:04;;;;;;;33.23;21.37;;;;;;;;;;5107110;28;20456;-93
2022/03/26 07:12:51;;;;;;;29.50;21.60;;;10.60;97.60;;;;;;5111269;28;20468;-95
2022/03/26 07:15:18;;;;;;;30.97;22.00;;;;;;;;;;5098029;28;20571;-92
2022/03/26 07:17:45;;;;;;;30.20;21.67;;;;;;;;;;5097215;28;20478;-92
2022/03/26 07:20:15;;;;;;;29.67;21.50;;;;;;;;;;5096074;28;20483;-93
2022/03/26 07:22:43;;;;;;;35.53;23.90;;;;;;;;;;5099834;28;20444;-94
2022/03/26 07:25:11;;;;;;;32.70;23.37;;;11.40;85.10;;;;;;5101569;28;20788;-93
2022/03/26 07:27:38;;;;;;;31.83;21.37;;;;;;;;;;5098915;28;20486;-90
2022/03/26 07:30:07;;;;;;;32.53;21.20;;;11.60;99.90;;;;;;5095962;28;20463;-92
2022/03/26 07:32:34;;;;;;;31.03;22.33;;;;;;;;;;5092949;28;20435;-93
2022/03/26 07:35:01;;;;;;;36.17;23.73;;;;;;;;;;5095859;28;20472;-90
2022/03/26 07:37:30;;;;;;;33.10;23.17;;;;;;;;;;5095970;28;20818;-90
2022/03/26 07:39:57;;;;;;;31.43;23.03;;;;;;;;;;5095938;28;20795;-93
2022/03/26 07:42:24;;;;;;;34.17;24.50;;;;;;;;;;5096595;28;20445;-93
2022/03/26 07:44:51;;;;;;;32.83;24.50;;;;;;;;;;5099639;28;20468;-93
2022/03/26 07:47:18;;;;;;;33.00;24.87;;;;;;;;;;5100930;28;20463;-93
2022/03/26 07:49:46;;;;;;;33.63;25.10;;;13.10;80.00;;;;;;5099748;28;20924;-92
2022/03/26 07:52:17;;;;;;;39.53;24.83;;;;;;;;;;5101825;28;20445;-90
2022/03/26 07:57:28;;;;;;;34.03;24.90;;;;;;;;;;5078589;28;20789;-94
2022/03/26 07:59:56;;;;;;;34.43;24.77;;;;;;;;;;5108350;28;20441;-94
2022/03/26 08:02:26;;;;;;;34.90;24.80;;;;;;;;;;5109634;28;20429;-94
2022/03/26 08:04:53;;;;;;;33.00;25.17;;;;;;;;;;5106591;28;20441;-94
2022/03/26 08:07:21;;;;;;;33.47;25.07;;;;;;;;;;5108520;28;20441;-93
2022/03/26 08:09:50;;;;;;;34.23;25.20;;;;;;;;;;5106806;28;20483;-93
2022/03/26 08:12:18;;;;;;;37.03;26.27;;;;;;;;;;5108985;28;20892;-94
2022/03/26 08:15:07;;;;;;;35.07;25.17;;;15.30;69.60;;;;;;5107174;28;20438;-94
2022/03/26 08:17:35;;;;;;;33.57;25.03;;;;;;;;;;5088959;28;20511;-93
2022/03/26 08:20:02;;;;;;;41.27;29.33;;;;;;;;;;5110453;28;20450;-94
2022/03/26 08:22:32;;;;;;;33.73;26.10;;;;;;;;;;5106109;28;20460;-94
2022/03/26 08:25:00;;;;;;;34.27;25.97;;;;;;;;;;5105268;28;20449;-93
2022/03/26 08:27:28;;;;;;;30.20;24.83;;;;;;;;;;5109426;28;20452;-95
2022/03/26 08:30:17;;;;;;;31.63;24.87;;;16.30;63.30;;;;;;5109878;28;20480;-93
2022/03/26 08:32:44;;;;;;;30.83;25.27;;;;;;;;;;5111381;28;20475;-93
2022/03/26 08:35:11;;;;;;;39.33;26.30;;;;;;;;;;5109557;28;20456;-93
2022/03/26 08:37:39;;;;;;;30.70;24.10;;;16.70;61.90;;;;;;5103554;28;20433;-94
2022/03/26 08:40:11;;;;;;;33.33;24.83;;;;;;;;;;5100393;28;20480;-94
2022/03/26 08:42:38;;;;;;;36.43;27.20;;;;;;;;;;5098017;28;20445;-93
2022/03/26 08:45:08;;;;;;;33.93;25.90;;;;;;;;;;5096283;28;20437;-94
2022/03/26 08:47:35;;;;;;;38.30;25.73;;;;;;;;;;5096641;28;20448;-93
2022/03/26 08:50:02;;;;;;;39.37;26.47;;;;;;;;;;5100642;28;20444;-92
2022/03/26 08:52:29;;;;;;;38.30;26.60;;;;;;;;;;5109486;28;20449;-91
2022/03/26 08:54:59;;;;;;;33.30;25.80;;;;;;;;;;5110842;28;20512;-95
2022/03/26 08:57:28;;;;;;;37.13;26.00;;;;;;;;;;5108530;28;20448;-96
2022/03/26 08:59:55;;;;;;;37.70;25.40;;;;;;;;;;5100666;28;20453;-91
2022/03/26 09:02:22;;;;;;;35.13;25.93;;;;;;;;;;5099619;28;20445;-94
2022/03/26 09:04:52;;;;;;;36.13;24.93;;;;;;;;;;5095911;28;20551;-94
2022/03/26 09:07:21;;;;;;;33.13;26.53;;;;;;;;;;5095640;28;20499;-95
2022/03/26 09:09:48;;;;;;;32.20;25.10;;;;;;;;;;5100339;28;20520;-92
2022/03/26 09:12:21;;;;;;;33.10;25.23;;;;;;;;;;5103832;28;20499;-94
2022/03/26 09:14:52;;;;;;;33.87;26.00;;;;;;;;;;5101345;28;20457;-92
2022/03/26 09:17:20;;;;;;;32.33;24.37;;;;;;;;;;5099216;28;20567;-95
2022/03/26 09:19:47;;;;;;;35.30;25.37;;;;;;;;;;5101774;28;20449;-93
2022/03/26 09:22:15;;;;;;;33.47;24.40;;;;;;;;;;5101879;28;20472;-91
2022/03/26 09:24:42;;;;;;;35.23;27.30;;;;;;;;;;5103323;28;20475;-91
2022/03/26 09:27:10;;;;;;;34.67;26.73;;;;;;;;;;5097222;28;20495;-89
2022/03/26 09:29:37;;;;;;;36.43;26.20;;;;;;;;;;5102002;28;20432;-89
2022/03/26 09:32:06;;;;;;;38.73;25.73;;;;;;;;;;5103123;28;20444;-88
2022/03/26 09:34:33;;;;;;;35.10;26.07;;;;;;;;;;5097510;28;20452;-92
2022/03/26 09:37:01;;;;;;;42.23;26.00;;;;;;;;;;5093388;28;20437;-92
2022/03/26 09:39:28;;;;;;;31.77;26.60;;;;;;;;;;5093132;28;20441;-91
2022/03/26 09:41:55;;;;;;;36.50;25.70;;;;;;;;;;5098907;28;20436;-88
2022/03/26 09:44:23;;;;;;;32.10;25.63;;;;;;;;;;5099895;28;20445;-89
2022/03/26 09:46:50;;;;;;;36.23;26.40;;;;;;;;;;5102514;28;20492;-89
2022/03/26 09:49:19;;;;;;;33.23;25.40;;;;;;;;;;5101682;28;20433;-91
2022/03/26 09:51:46;;;;;;;35.17;26.37;;;;;;;;;;5101789;28;20445;-87
2022/03/26 09:54:15;;;;;;;39.07;26.13;;;;;;;;;;5096705;28;20444;-91
2022/03/26 09:56:42;;;;;;;31.23;23.80;;;;;;;;;;5096772;28;20460;-91
2022/03/26 09:59:09;;;;;;;32.87;25.80;;;;;;;;;;5097703;28;20453;-89
2022/03/26 10:01:36;;;;;;;37.50;26.50;;;;;;;;;;5098487;28;20528;-91
2022/03/26 10:04:11;;;;;;;34.20;24.73;;;20.30;69.60;;;;;;5098216;28;20455;-92
2022/03/26 10:06:48;;;;;;;36.37;26.70;;;19.40;60.60;;;;;;5100004;28;20475;-89
2022/03/26 10:09:26;;;;;;;32.80;24.30;;;20.20;62.00;;;;;;5101729;28;20441;-91
2022/03/26 10:12:00;;;;;;;30.67;24.83;;;20.40;60.40;;;;;;5102527;28;20468;-93
2022/03/26 10:14:44;;;;;;;35.90;26.70;;;20.20;56.60;;;;;;5099936;28;20445;-91
2022/03/26 10:17:12;;;;;;;33.17;25.73;;;;;;;;;;5099051;28;20484;-90
2022/03/26 10:19:42;;;;;;;38.00;27.83;;;19.40;57.20;;;;;;5096100;28;20810;-86
2022/03/26 10:22:29;;;;;;;34.47;26.07;;;19.90;56.90;;;;;;5093013;28;20468;-87
2022/03/26 10:24:56;;;;;;;38.90;27.40;;;;;;;;;;5093029;28;20448;-87
2022/03/26 10:27:24;;;;;;;34.43;26.33;;;;;;;;;;5092881;28;20562;-90
2022/03/26 10:29:52;;;;;;;33.90;25.70;;;20.20;61.30;;;;;;5093248;28;20445;-91
2022/03/26 10:35:21;;;;;;;34.90;25.67;;;20.30;56.90;;;;;;5093101;28;20900;-91
2022/03/26 10:37:54;;;;;;;36.43;26.83;;;19.50;53.40;;;;;;5093208;28;20455;-89
2022/03/26 10:40:32;;;;;;;34.40;26.70;;;20.60;56.30;;;;;;5092827;28;20455;-93
2022/03/26 10:43:06;;;;;;;32.50;26.80;;;20.50;51.10;;;;;;5092815;28;20459;-91
2022/03/26 10:45:36;;;;;;;36.30;26.27;;;20.80;49.80;;;;;;5093144;28;20422;-91
2022/03/26 10:48:07;;;;;;;32.70;25.83;;;21.70;52.40;;;;;;5093809;28;20535;-93
2022/03/26 10:50:35;;;;;;;34.20;27.50;;;21.90;50.30;;;;;;5093507;28;20441;-91
2022/03/26 10:53:09;;;;;;;36.17;27.93;;;21.90;49.60;;;;;;5093201;28;20944;-94
2022/03/26 10:55:39;;;;;;;38.73;25.00;;;22.00;49.80;;;;;;5094519;28;20456;-94
2022/03/26 10:58:06;;;;;;;44.13;28.50;;;;;;;;;;5094105;28;20436;-91
2022/03/26 11:00:34;;;;;;;36.30;27.93;;;;;;;;;;5095345;28;20486;-89
2022/03/26 11:03:01;;;;;;;38.63;28.27;;;;;;;;;;5096720;28;20470;-89
2022/03/26 11:05:30;;;;;;;35.60;26.27;;;21.40;49.00;;;;;;5096587;28;20787;-93
2022/03/26 11:07:58;;;;;;;32.07;26.57;;;;;;;;;;5096269;28;20480;-89
2022/03/26 11:10:26;;;;;;;36.20;26.40;;;22.50;48.10;;;;;;5097318;28;20464;-95
2022/03/26 11:12:53;;;;;;;30.10;24.83;;;;;;;;;;5096282;28;20471;-90
2022/03/26 11:15:26;;;;;;;33.63;26.00;;;22.60;47.80;;;;;;5096119;28;20456;-93
2022/03/26 11:18:05;;;;;;;35.70;26.23;;;22.40;46.70;;;;;;5096390;28;20499;-89
2022/03/26 11:21:08;;;;;;;32.53;24.30;;;21.70;47.50;;;;;;5096945;28;20444;-88
2022/03/26 11:23:51;;;;;;;30.90;25.93;;;22.20;47.20;;;;;;5095600;28;20474;-90
2022/03/26 11:26:44;;;;;;;30.20;24.40;;;22.10;44.90;;;;;;5095644;28;20488;-90
2022/03/26 11:29:28;;;;;;;31.63;24.93;;;22.30;46.90;;;;;;5096575;28;20445;-92
2022/03/26 11:31:58;;;;;;;34.83;22.80;;;22.50;46.10;;;;;;5095619;28;20449;-90
2022/03/26 11:34:25;;;;;;;28.40;22.93;;;;;;;;;;5095664;28;20528;-90
2022/03/26 11:36:53;;;;;;;32.77;23.77;;;;;;;;;;5095696;28;20457;-88
2022/03/26 11:39:21;;;;;;;29.37;23.77;;;21.90;45.10;;;;;;5095604;28;20452;-88
2022/03/26 11:41:49;;;;;;;32.73;23.87;;;22.10;45.60;;;;;;5095361;28;20811;-91
2022/03/26 11:44:18;;;;;;;28.87;24.10;;;22.10;45.00;;;;;;5095389;28;20444;-89
2022/03/26 11:52:21;;;;;;;32.40;23.47;;;21.90;44.60;;;;;;5095388;28;20844;-92
2022/03/26 11:54:48;;;;;;;29.80;22.23;;;;;;;;;;5095478;28;20452;-91
2022/03/26 11:57:19;;;;;;;26.50;20.30;;;21.90;44.80;;;;;;5095634;28;20932;-90
2022/03/26 11:59:47;;;;;;;30.90;22.17;;;;;;;;;;5094554;28;20460;-90
2022/03/26 12:02:25;;;;;;;29.50;22.60;;;21.50;45.10;;;;;;5095690;28;20448;-88
2022/03/26 12:04:57;;;;;;;28.83;21.10;;;21.40;45.50;;;;;;5098943;28;20425;-95
2022/03/26 12:07:28;;;;;;;31.43;22.30;;;21.80;44.80;;;;;;5098880;28;20488;-94
2022/03/26 12:10:10;;;;;;;27.67;21.83;;;21.80;45.30;;;;;;5097754;28;20480;-93
2022/03/26 12:12:49;;;;;;;30.33;22.00;;;;;;;;;;5095838;28;20436;-93
2022/03/26 12:15:24;;;;;;;33.50;21.93;;;21.40;44.00;;;;;;5095722;28;20942;-94
2022/03/26 12:17:53;;;;;;;26.33;20.80;;;21.70;43.30;;;;;;5093527;28;20480;-92
2022/03/26 12:20:24;;;;;;;26.57;20.13;;;21.80;43.10;;;;;;5096277;28;20445;-92
2022/03/26 12:23:03;;;;;;;28.20;18.67;;;;;;;;;;5096645;28;20441;-95
2022/03/26 12:25:50;;;;;;;32.07;21.60;;;22.30;42.50;;;;;;5104205;28;20440;-95
2022/03/26 12:28:28;;;;;;;28.87;21.17;;;;;;;;;;5101365;28;20508;-94
2022/03/26 12:31:04;;;;;;;28.47;20.03;;;22.80;44.00;;;;;;5097972;28;20449;-93
2022/03/26 12:33:40;;;;;;;27.73;19.63;;;22.80;44.40;;;;;;5096696;28;20448;-93
2022/03/26 12:36:10;;;;;;;24.10;18.50;;;22.10;42.50;;;;;;5096110;28;20461;-93
2022/03/26 12:38:38;;;;;;;23.87;18.80;;;;;;;;;;5097733;28;20483;-91
2022/03/26 12:41:09;;;;;;;22.00;19.60;;;22.80;43.30;;;;;;5096890;28;20456;-90
2022/03/26 12:43:37;;;;;;;24.87;20.00;;;22.90;43.00;;;;;;5099404;28;20445;-90
2022/03/26 12:46:09;;;;;;;25.80;19.60;;;22.60;42.00;;;;;;5096263;28;20448;-94
2022/03/26 12:48:37;;;;;;;22.90;17.53;;;;;;;;;;5097517;28;20429;-91
2022/03/26 12:51:06;;;;;;;24.50;17.83;;;22.70;41.10;;;;;;5100064;28;20951;-94
2022/03/26 12:53:37;;;;;;;21.67;16.77;;;22.20;40.10;;;;;;5099131;28;20453;-90
2022/03/26 12:56:06;;;;;;;23.03;18.17;;;;;;;;;;5098110;28;20441;-95
2022/03/26 13:01:23;;;;;;;26.47;16.07;;;22.40;41.40;;;;;;5100897;28;20439;-90
2022/03/26 13:03:51;;;;;;;19.90;15.70;;;;;;;;;;5097355;28;20457;-92
2022/03/26 13:06:20;;;;;;;23.07;15.67;;;22.00;42.00;;;;;;5095823;28;20441;-94
2022/03/26 13:08:50;;;;;;;25.60;19.10;;;;;;;;;;5095437;28;20958;-92
2022/03/26 13:11:18;;;;;;;20.07;16.60;;;21.20;39.60;;;;;;5095327;28;20468;-94
2022/03/26 13:13:47;;;;;;;21.70;16.77;;;21.50;39.00;;;;;;5094985;28;20437;-92
2022/03/26 13:16:16;;;;;;;22.30;16.07;;;22.40;40.50;;;;;;5096405;28;20456;-94
2022/03/26 13:18:47;;;;;;;22.83;15.03;;;22.60;40.00;;;;;;5099611;28;20522;-95
2022/03/26 13:21:16;;;;;;;20.47;16.47;;;22.10;39.70;;;;;;5106940;28;20523;-96
2022/03/26 13:23:56;;;;;;;22.60;17.10;;;22.20;39.60;;;;;;5102063;28;20433;-93
2022/03/26 13:26:42;;;;;;;27.67;20.03;;;22.30;37.40;;;;;;5083178;28;20453;-91
2022/03/26 13:29:33;;;;;;;20.03;15.33;;;21.10;35.50;;;;;;5087044;28;20978;-95
2022/03/26 13:32:01;;;;;;;19.83;14.97;;;21.30;36.30;;;;;;5084387;28;20438;-92
2022/03/26 13:34:33;;;;;;;20.07;16.07;;;21.30;37.10;;;;;;5087175;28;20453;-90
2022/03/26 13:39:51;;;;;;;22.90;14.70;;;22.60;39.60;;;;;;5085213;28;20438;-95
2022/03/26 13:42:24;;;;;;;23.40;17.47;;;22.60;37.60;;;;;;5082933;28;20536;-93
2022/03/26 13:44:53;;;;;;;18.00;13.40;;;23.10;39.00;;;;;;5080445;28;20441;-94
2022/03/26 13:47:24;;;;;;;28.77;20.80;;;22.70;36.40;;;;;;5078707;28;20485;-96
2022/03/26 13:50:04;;;;;;;23.53;16.63;;;22.70;37.40;;;;;;5077748;28;20449;-92
2022/03/26 13:52:34;;;;;;;31.00;23.40;;;22.70;36.30;;;;;;5074976;28;20454;-93
2022/03/26 13:55:05;;;;;;;23.90;16.53;;;;;;;;;;5080593;28;20484;-94
2022/03/26 13:57:33;;;;;;;21.43;16.33;;;22.60;39.60;;;;;;5080742;28;20569;-93
2022/03/26 14:00:06;;;;;;;20.53;15.67;;;21.50;37.50;;;;;;5077318;28;20512;-92
2022/03/26 14:02:35;;;;;;;22.60;14.50;;;22.60;33.50;;;;;;5077301;28;20435;-93
2022/03/26 14:05:04;;;;;;;19.33;14.57;;;;;;;;;;5076398;28;20456;-91
2022/03/26 14:07:31;;;;;;;15.47;12.03;;;;;;;;;;5077183;28;20547;-91
2022/03/26 14:09:58;;;;;;;20.50;13.80;;;;;;;;;;5078479;28;20453;-91
2022/03/26 14:12:25;;;;;;;16.70;13.50;;;;;;;;;;5079279;28;20430;-94
2022/03/26 14:14:52;;;;;;;17.53;12.73;;;;;;;;;;5078978;28;20441;-92
2022/03/26 14:17:20;;;;;;;21.60;15.73;;;;;;;;;;5081518;28;20481;-95
2022/03/26 14:19:47;;;;;;;18.80;14.63;;;;;;;;;;5081748;28;20433;-93